Pagrindinis puslapis
METAR-TAF:

METAR-TAF

Oro uostai :

Karlovi Varai, Čekija

platuma: 50-12N, ilguma: 012-55E, Aukštis: 603 m

Dabartinis oras

Ataskaita buvo paskelbta 14 minutes, ne 09:30 UTC
Vėjas 2 kt nuo kintamojo kryptimis
Temperatūra 11°C
Drėgmė 50%
Slėgis 1029 hPa
Matomumas 10 km arba daugiau
Mažai debesys ne aukštis 3600 ft

METAR: LKKV 200930Z VRB02KT 9999 FEW036 11/01 Q1029

Laikas: 11:44 (09:44 UTC)

Prognozė

Ataskaita buvo paskelbta 4 valandos ir 44 minutes, ne 05:00 UTC
Prognozė galioja nuo 20 metu 06 UTC su 21 metu 12 UTC
Vėjas 2 kt nuo kintamojo kryptimis
Matomumas 10 km arba daugiau
nėra debesų žemiau 1500 m ir nėra kamuolinių lietaus debesų
Laikinai
nuo 20 metu 09 UTC su 20 metu 18 UTC
Vėjas 4 kt iš Šiaurės Vakarų
Tikimybė 30% :
Laikinai
nuo 20 metu 23 UTC su 21 metu 06 UTC
Matomumas: 5000 m
rūkana

TAF: LKKV 200500Z 2006/2112 VRB02KT CAVOK TEMPO 2009/2018 32004KT PROB30 TEMPO 2023/2106 5000 BR NSC

Orai ataskaitas ir orų prognozės (METAR, TAF).

turimą stotys yra geltonos ir raudonos taškus žemėlapyje.

Perkelti pele per norėdami pamatyti stoties vardą.

Tada spustelėkite, norėdami matyti oro stebėjimo ir prognozės.

Norėdami pakeisti žemėlapį: spustelėkite ant žalios mygtukų su juodo kryžiaus žemyn,; žalią mygtuką su brūkšneliu, jei norite nutolinti; arba žalių rodyklių gretimoms žemėlapius.


METAR-TAF: